Time;durP1;ratioP1;P1;durP2;ratioP2;P2;SDS_P1;SDS_P2;PMS_P1;PMS_P2;Temp;Humidity;BMP_temperature;BMP_pressure;BME280_temperature;BME280_humidity;BME280_pressure;Samples;Min_cycle;Max_cycle;Signal;HPM_P1;HPM_P2
2023/04/27 00:00:11;;;;;;;9.80;5.67;;;;;;;-141.97;55.70;47699.75;5034074;28;20163;-81
2023/04/27 00:02:37;;;;;;;8.87;5.50;;;;;;;-141.97;55.73;47680.53;5033892;28;20162;-81
2023/04/27 00:05:04;;;;;;;8.47;4.67;;;;;;;-141.97;55.57;47836.22;5034636;28;20170;-81
2023/04/27 00:07:29;;;;;;;9.43;5.47;;;;;;;-141.97;55.59;47742.03;5034864;28;20151;-80
2023/04/27 00:09:55;;;;;;;8.53;5.53;;;;;;;-141.97;55.62;47711.28;5034512;28;20719;-80
2023/04/27 00:12:21;;;;;;;8.47;5.43;;;;;;;-141.97;55.57;47680.53;5017394;28;20189;-80
2023/04/27 00:14:46;;;;;;;7.40;4.30;;;;;;;-141.97;55.64;47724.75;5051631;28;20247;-80
2023/04/27 00:17:11;;;;;;;9.00;5.23;;;;;;;-141.97;55.70;47694.00;5048386;28;20173;-80
2023/04/27 00:19:38;;;;;;;7.40;4.83;;;;;;;-141.97;55.70;47682.47;5067823;28;20166;-81
2023/04/27 00:22:03;;;;;;;8.87;5.37;;;;;;;-141.97;55.96;47674.78;5066281;28;20160;-81
2023/04/27 00:24:29;;;;;;;7.83;5.30;;;;;;;-141.97;55.60;47724.75;5058375;28;20193;-81
2023/04/27 00:26:55;;;;;;;8.00;4.57;;;;;;;-141.97;55.75;47659.38;5053872;28;20165;-81
2023/04/27 00:29:20;;;;;;;9.30;5.90;;;;;;;-141.97;55.64;47661.31;5053692;28;20199;-81
2023/04/27 00:31:46;;;;;;;6.93;5.10;;;;;;;-141.97;55.56;47680.53;5053784;28;20200;-81
2023/04/27 00:34:11;;;;;;;7.90;5.47;;;;;;;-141.97;55.93;47830.47;5053927;28;20161;-80
2023/04/27 00:36:37;;;;;;;9.33;5.60;;;;;;;-141.97;55.75;47705.53;5053222;28;20224;-80
2023/04/27 00:39:03;;;;;;;10.90;5.90;;;;;;;-141.97;56.17;47695.91;5053592;28;20165;-81
2023/04/27 00:41:28;;;;;;;8.77;5.37;;;;;;;-141.97;56.09;47722.81;5053196;28;20161;-81
2023/04/27 00:43:53;;;;;;;8.67;5.00;;;;;;;-141.97;55.99;47711.28;5053211;28;20276;-81
2023/04/27 00:46:20;;;;;;;12.73;5.90;;;;;;;-141.97;56.00;47755.50;5053041;28;20161;-81
2023/04/27 00:48:45;;;;;;;6.83;4.87;;;;;;;-141.97;56.04;47709.38;5035506;28;20188;-81
2023/04/27 00:51:11;;;;;;;8.53;5.63;;;;;;;-141.97;56.59;47676.69;5053255;28;20541;-80
2023/04/27 00:53:37;;;;;;;9.87;5.13;;;;;;;-141.97;56.69;47742.03;5053119;28;20169;-80
2023/04/27 00:56:04;;;;;;;9.23;5.43;;;;;;;-141.97;56.56;47665.16;5035328;28;20661;-80
2023/04/27 00:58:30;;;;;;;9.97;5.27;;;;;;;-141.97;56.09;47711.28;5052872;28;20162;-80
2023/04/27 01:00:55;;;;;;;9.23;5.60;;;;;;;-141.97;55.96;47713.22;5053256;28;20256;-81
2023/04/27 01:03:22;;;;;;;8.80;4.90;;;;;;;-141.97;55.82;47718.97;5053111;28;20247;-80
2023/04/27 01:05:47;;;;;;;10.73;4.73;;;;;;;-141.97;55.63;47738.19;5052703;28;20188;-81
2023/04/27 01:08:13;;;;;;;7.93;5.30;;;;;;;-141.97;55.84;47692.06;5053205;28;20157;-80
2023/04/27 01:10:40;;;;;;;9.17;4.70;;;;;;;-141.97;55.44;47717.06;5053064;28;20162;-80
2023/04/27 01:13:05;;;;;;;8.50;4.90;;;;;;;-141.97;55.26;47678.63;5035277;28;20564;-80
2023/04/27 01:15:31;;;;;;;10.83;5.70;;;;;;;-141.97;55.04;47686.31;5053293;28;20534;-80
2023/04/27 01:18:00;;;;;;;10.63;5.50;;;;;;;-141.97;54.68;47686.31;5052723;28;20174;-80
2023/04/27 01:20:29;;;;;;;10.57;5.37;;;;;;;-141.97;54.77;47692.06;5052537;28;20165;-80
2023/04/27 01:22:57;;;;;;;14.77;5.27;;;;;;;-141.97;54.45;47734.34;5054446;28;20189;-80
2023/04/27 01:25:23;;;;;;;10.67;5.20;;;;;;;-141.97;54.20;47734.34;5059460;28;20200;-79
2023/04/27 01:27:49;;;;;;;7.77;4.67;;;;;;;-141.97;54.29;47676.69;5074046;28;20145;-81
2023/04/27 01:30:15;;;;;;;8.40;5.30;;;;;;;-141.97;53.82;47709.38;5052776;28;20303;-80
2023/04/27 01:32:41;;;;;;;8.73;4.77;;;;;;;-141.97;53.83;47715.13;5051776;28;20173;-81
2023/04/27 01:35:07;;;;;;;10.97;5.23;;;;;;;-141.97;53.27;47707.44;5051820;28;20176;-81
2023/04/27 01:37:32;;;;;;;9.63;5.07;;;;;;;-141.97;53.53;47711.28;5051799;28;20672;-81
2023/04/27 01:39:58;;;;;;;8.07;4.13;;;;;;;-141.97;53.01;47605.56;5052012;28;20245;-81
2023/04/27 01:42:23;;;;;;;9.63;4.37;;;;;;;-141.97;53.36;47713.22;5051556;28;20167;-81
2023/04/27 01:44:48;;;;;;;9.73;4.90;;;;;;;-141.97;53.37;47669.00;5051774;28;20193;-81
2023/04/27 01:47:16;;;;;;;9.27;4.83;;;;;;;-141.97;53.34;47728.59;5050767;28;20170;-81
2023/04/27 01:49:41;;;;;;;11.30;4.83;;;;;;;-141.97;53.48;47718.97;5051551;28;20629;-81
2023/04/27 01:52:07;;;;;;;9.80;4.80;;;;;;;-141.97;53.16;47713.22;5052018;28;20204;-81
2023/04/27 01:54:32;;;;;;;10.00;5.00;;;;;;;-141.97;53.82;47742.03;5051469;28;20662;-81
2023/04/27 01:56:57;;;;;;;8.40;4.57;;;;;;;-141.97;53.44;47692.06;5051514;28;20227;-81
2023/04/27 01:59:23;;;;;;;9.37;4.80;;;;;;;-141.97;53.60;47818.94;5051192;28;20169;-81
2023/04/27 02:01:49;;;;;;;10.00;5.00;;;;;;;-141.97;53.48;47801.63;5033588;28;20189;-81
2023/04/27 02:04:14;;;;;;;15.80;5.27;;;;;;;-141.97;53.73;47701.69;5051504;28;20205;-81
2023/04/27 02:06:40;;;;;;;9.97;4.73;;;;;;;-141.97;53.43;47634.41;5051206;28;20157;-81
2023/04/27 02:09:06;;;;;;;9.63;5.30;;;;;;;-141.97;53.14;47692.06;5051843;28;20173;-81
2023/04/27 02:11:31;;;;;;;7.23;5.00;;;;;;;-141.97;53.63;47734.34;5051158;28;20193;-81
2023/04/27 02:13:57;;;;;;;7.37;4.60;;;;;;;-141.97;53.39;47730.50;5051411;28;20660;-81
2023/04/27 02:16:22;;;;;;;7.10;5.00;;;;;;;-141.97;54.08;47657.47;5052117;28;20165;-81
2023/04/27 02:18:48;;;;;;;8.93;5.00;;;;;;;-141.97;53.67;47722.81;5051886;28;20253;-81
2023/04/27 02:21:13;;;;;;;10.17;4.70;;;;;;;-141.97;53.76;47703.59;5051512;28;20199;-81
2023/04/27 02:23:39;;;;;;;9.47;4.67;;;;;;;-141.97;53.94;47694.00;5051588;28;20189;-81
2023/04/27 02:26:04;;;;;;;10.10;4.70;;;;;;;-141.97;53.93;47726.66;5051826;28;20177;-81
2023/04/27 02:28:31;;;;;;;10.13;5.17;;;;;;;-141.97;53.76;47707.44;5051593;28;20234;-81
2023/04/27 02:30:57;;;;;;;7.77;4.63;;;;;;;-141.97;53.53;47680.53;5051897;28;20165;-81
2023/04/27 02:33:22;;;;;;;9.03;4.97;;;;;;;-141.97;53.22;47815.09;5033689;28;20647;-81
2023/04/27 02:35:47;;;;;;;7.70;5.10;;;;;;;-141.97;53.24;47715.13;5033719;28;20223;-81
2023/04/27 02:38:13;;;;;;;7.57;4.67;;;;;;;-141.97;53.19;47645.94;5051743;28;20220;-80
2023/04/27 02:40:38;;;;;;;9.20;4.63;;;;;;;-141.97;53.02;47722.81;5051518;28;20163;-81
2023/04/27 02:43:04;;;;;;;7.37;4.33;;;;;;;-141.97;53.22;47707.44;5051041;28;20193;-81
2023/04/27 02:45:29;;;;;;;8.37;4.80;;;;;;;-141.97;52.69;47711.28;5050887;28;20219;-81
2023/04/27 02:47:55;;;;;;;8.50;4.90;;;;;;;-141.97;52.66;47817.00;5051365;28;20191;-82
2023/04/27 02:50:20;;;;;;;10.90;5.23;;;;;;;-141.97;52.29;47734.34;5033254;28;20542;-82
2023/04/27 02:52:45;;;;;;;7.90;4.70;;;;;;;-141.97;52.13;47715.13;5051249;28;20165;-81
2023/04/27 02:55:12;;;;;;;8.60;4.47;;;;;;;-141.97;51.80;47699.75;5051401;28;20170;-81
2023/04/27 02:57:37;;;;;;;7.07;4.47;;;;;;;-141.97;51.91;47661.31;5050979;28;20164;-81
2023/04/27 03:00:05;;;;;;;8.30;4.50;;;;;;;-141.97;51.83;47734.34;5037341;28;20165;-82
2023/04/27 03:02:30;;;;;;;11.57;4.67;;;;;;;-141.97;51.82;47684.38;5055751;28;20158;-80
2023/04/27 03:04:56;;;;;;;9.23;4.30;;;;;;;-141.97;51.64;47694.00;5055115;28;20193;-79
2023/04/27 03:07:21;;;;;;;8.47;4.70;;;;;;;-141.97;51.34;47663.22;5054905;28;20172;-80
2023/04/27 03:09:47;;;;;;;8.93;4.20;;;;;;;-141.97;51.67;47722.81;5055319;28;20732;-80
2023/04/27 03:12:12;;;;;;;8.40;4.30;;;;;;;-141.97;51.82;47670.91;5055110;28;20533;-80
2023/04/27 03:14:38;;;;;;;7.57;4.90;;;;;;;-141.97;51.80;47690.16;5055247;28;20614;-79
2023/04/27 03:17:03;;;;;;;9.53;4.43;;;;;;;-141.97;51.47;47688.22;5055227;28;20252;-80
2023/04/27 03:19:29;;;;;;;8.03;4.13;;;;;;;-141.97;51.44;47711.28;5037236;28;20203;-80
2023/04/27 03:21:54;;;;;;;6.93;4.50;;;;;;;-141.97;51.77;47730.50;5036903;28;20253;-81
2023/04/27 03:24:20;;;;;;;8.10;4.73;;;;;;;-141.97;51.50;47694.00;5054358;28;20250;-81
2023/04/27 03:26:46;;;;;;;8.77;4.33;;;;;;;-141.97;51.82;47707.44;5054879;28;20196;-81
2023/04/27 03:29:11;;;;;;;8.77;4.27;;;;;;;-141.97;52.04;47695.91;5054929;28;20552;-81
2023/04/27 03:31:36;;;;;;;9.17;4.80;;;;;;;-141.97;51.82;47742.03;5054382;28;20174;-81
2023/04/27 03:34:02;;;;;;;9.83;4.33;;;;;;;-141.97;51.86;47715.13;5054658;28;20162;-81
2023/04/27 03:36:27;;;;;;;9.50;4.53;;;;;;;-141.97;52.03;47699.75;5053900;28;20787;-81
2023/04/27 03:38:52;;;;;;;10.93;5.00;;;;;;;-141.97;52.05;47703.59;5054861;28;20212;-81
2023/04/27 03:41:18;;;;;;;12.17;4.60;;;;;;;-141.97;51.85;47722.81;5054387;28;20172;-81
2023/04/27 03:43:43;;;;;;;11.60;4.53;;;;;;;-141.97;51.77;47715.13;5054184;28;20189;-81
2023/04/27 03:46:09;;;;;;;9.00;4.40;;;;;;;-141.97;52.38;47695.91;5054627;28;20181;-81
2023/04/27 03:48:35;;;;;;;9.77;5.13;;;;;;;-141.97;52.08;47726.66;5036690;28;20644;-81
2023/04/27 03:51:00;;;;;;;9.40;4.60;;;;;;;-141.97;51.81;47707.44;5037303;28;20177;-81
2023/04/27 03:53:26;;;;;;;9.80;4.93;;;;;;;-141.97;52.07;47711.28;5054563;28;20169;-81
2023/04/27 03:55:51;;;;;;;12.23;5.20;;;;;;;-141.97;52.00;47709.38;5054481;28;20161;-81
2023/04/27 03:58:17;;;;;;;7.43;4.87;;;;;;;-141.97;52.18;47707.44;5054386;28;20168;-81
2023/04/27 04:00:42;;;;;;;7.27;4.40;;;;;;;-141.97;51.47;47676.69;5054020;28;20230;-81
2023/04/27 04:03:07;;;;;;;12.20;6.87;;;;;;;-141.97;51.58;47726.66;5054472;28;20223;-80
2023/04/27 04:05:33;;;;;;;16.17;9.30;;;;;;;-141.97;51.21;47707.44;5036650;28;20199;-80
2023/04/27 04:07:58;;;;;;;12.40;7.73;;;;;;;-141.97;51.03;47684.38;5035936;28;20204;-81
2023/04/27 04:10:25;;;;;;;23.43;10.93;;;;;;;-141.97;50.97;47726.66;5043875;28;20178;-80
2023/04/27 04:12:51;;;;;;;26.90;15.80;;;;;;;-141.97;50.87;47701.69;5032604;28;20392;-79
2023/04/27 04:15:17;;;;;;;9.77;6.50;;;;;;;-141.97;50.98;47718.97;5043167;28;20633;-82
2023/04/27 04:17:43;;;;;;;8.43;4.43;;;;;;;-141.97;50.84;47707.44;5033702;28;20154;-81
2023/04/27 04:20:09;;;;;;;12.23;7.07;;;;;;;-141.97;50.81;47826.63;5033419;28;20591;-81
2023/04/27 04:22:36;;;;;;;8.87;4.43;;;;;;;-141.97;51.01;47742.03;5033463;28;20245;-81
2023/04/27 04:25:01;;;;;;;9.30;5.00;;;;;;;-141.97;50.60;47661.31;5032433;28;20218;-81
2023/04/27 04:27:26;;;;;;;10.43;5.40;;;;;;;-141.97;51.05;47793.94;5033258;28;20642;-81
2023/04/27 04:29:52;;;;;;;8.43;4.60;;;;;;;-141.97;50.70;47688.22;5032950;28;20166;-81
2023/04/27 04:32:19;;;;;;;9.87;5.40;;;;;;;-141.97;50.50;47711.28;5033299;28;20163;-82
2023/04/27 04:34:50;;;;;;;8.83;4.67;;;;;;;-141.97;50.51;47732.44;5033416;28;20154;-82
2023/04/27 04:37:17;;;;;;;8.13;4.53;;;;;;;-141.97;50.41;47740.13;5015532;28;20221;-82
2023/04/27 04:39:43;;;;;;;11.27;4.97;;;;;;;-141.97;50.59;47682.47;5033774;28;20209;-81
2023/04/27 04:42:08;;;;;;;14.80;6.50;;;;;;;-141.97;50.74;47849.69;5033162;28;20162;-82
2023/04/27 04:44:34;;;;;;;7.03;4.50;;;;;;;-141.97;50.27;47718.97;5033152;28;20662;-81
2023/04/27 04:46:59;;;;;;;9.07;4.23;;;;;;;-141.97;50.22;47672.84;5041297;28;20311;-82
2023/04/27 04:49:25;;;;;;;10.90;4.47;;;;;;;-141.97;50.79;47715.13;5053015;28;20161;-82
2023/04/27 04:51:50;;;;;;;6.27;4.43;;;;;;;-141.97;50.72;47711.28;5053316;28;20168;-82
2023/04/27 04:54:18;;;;;;;6.83;4.07;;;;;;;-141.97;50.62;47684.38;5052754;28;20174;-81
2023/04/27 04:56:43;;;;;;;8.43;4.40;;;;;;;-141.97;50.44;47692.06;5035084;28;20544;-81
2023/04/27 04:59:08;;;;;;;7.93;4.20;;;;;;;-141.97;50.92;47697.84;5052378;28;20169;-81
2023/04/27 05:01:34;;;;;;;8.47;3.77;;;;;;;-141.97;50.49;47680.53;5052612;28;20168;-81
2023/04/27 05:03:59;;;;;;;11.43;4.40;;;;;;;-141.97;50.53;47661.31;5052692;28;20242;-81
2023/04/27 05:06:25;;;;;;;12.70;4.60;;;;;;;-141.97;50.78;47711.28;5052835;28;20193;-80
2023/04/27 05:08:50;;;;;;;10.53;4.90;;;;;;;-141.97;49.93;47703.59;5024615;28;20244;-81
2023/04/27 05:11:16;;;;;;;7.60;4.80;;;;;;;-141.97;50.65;47680.53;5050462;28;20254;-81
2023/04/27 05:13:41;;;;;;;9.43;4.57;;;;;;;-141.97;50.35;47672.84;5051916;28;20200;-81
2023/04/27 05:16:12;;;;;;;8.10;5.03;;;;;;;-141.97;50.15;47730.50;5050202;28;20173;-82
2023/04/27 05:18:37;;;;;;;13.00;5.40;;;;;;;-141.97;50.10;47715.13;5034581;28;20177;-82
2023/04/27 05:21:03;;;;;;;10.40;5.10;;;;;;;-141.97;50.35;47715.13;5052151;28;20227;-82
2023/04/27 05:23:28;;;;;;;9.83;5.07;;;;;;;-141.97;50.03;47688.22;5051381;28;20262;-82
2023/04/27 05:25:56;;;;;;;8.43;5.03;;;;;;;-141.97;50.11;47695.91;5052339;28;20168;-81
2023/04/27 05:28:22;;;;;;;11.47;6.33;;;;;;;-141.97;50.29;47724.75;5038336;28;20610;-82
2023/04/27 05:30:47;;;;;;;10.60;5.97;;;;;;;-141.97;49.97;47713.22;5031998;28;20250;-82
2023/04/27 05:33:12;;;;;;;9.20;6.07;;;;;;;-141.97;49.86;47697.84;5032033;28;20162;-82
2023/04/27 05:35:38;;;;;;;8.87;5.23;;;;;;;-141.97;49.25;47843.91;5032132;28;20174;-82
2023/04/27 05:38:03;;;;;;;7.63;3.83;;;;;;;-141.97;48.76;47722.81;5031835;28;20217;-82
2023/04/27 05:40:29;;;;;;;6.30;3.97;;;;;;;-141.97;48.51;47692.06;5035570;28;20166;-83
2023/04/27 05:42:54;;;;;;;11.13;5.40;;;;;;;-141.97;48.02;47676.69;5032878;28;20241;-83
2023/04/27 05:45:20;;;;;;;9.57;5.03;;;;;;;-141.97;47.64;47692.06;5031964;28;20649;-82
2023/04/27 05:47:46;;;;;;;8.37;5.13;;;;;;;-141.97;48.47;47655.53;5032056;28;20200;-82
2023/04/27 05:50:11;;;;;;;9.07;5.07;;;;;;;-141.97;48.30;47634.41;5031714;28;20686;-83
2023/04/27 05:52:37;;;;;;;8.80;6.40;;;;;;;-141.97;47.68;47669.00;5032248;28;20169;-83
2023/04/27 05:55:04;;;;;;;7.77;4.67;;;;;;;-141.97;47.99;47728.59;5032238;28;20166;-82
2023/04/27 05:57:30;;;;;;;10.13;4.73;;;;;;;-141.97;47.83;47772.78;5031753;28;20279;-82
2023/04/27 05:59:55;;;;;;;23.47;9.67;;;;;;;-141.97;47.70;47640.16;5031770;28;20220;-82
2023/04/27 06:02:21;;;;;;;19.77;6.70;;;;;;;-141.97;47.77;47713.22;5031701;28;20166;-82
2023/04/27 06:04:47;;;;;;;12.20;6.50;;;;;;;-141.97;47.72;47684.38;5013534;28;20258;-82
2023/04/27 06:07:14;;;;;;;9.70;5.03;;;;;;;-141.97;47.86;47690.16;5013145;28;20185;-81
2023/04/27 06:09:40;;;;;;;16.97;8.00;;;;;;;-141.97;47.70;47519.06;5030310;28;20166;-80
2023/04/27 06:12:07;;;;;;;10.40;5.00;;;;;;;-141.97;48.44;47811.25;5012926;28;20178;-81
2023/04/27 06:14:34;;;;;;;7.70;4.30;;;;;;;-141.97;48.06;47592.13;5012752;28;20177;-81
2023/04/27 06:17:00;;;;;;;8.32;4.80;;;;;;;-141.97;47.74;47576.75;5021065;28;20832;-81
2023/04/27 06:19:25;;;;;;;8.30;4.00;;;;;;;-141.97;47.57;47680.53;5033317;28;20173;-81
2023/04/27 06:21:53;;;;;;;7.70;4.13;;;;;;;-141.97;47.61;47692.06;5032488;28;20494;-80
2023/04/27 06:24:18;;;;;;;7.37;4.40;;;;;;;-141.97;47.85;47567.13;5051439;28;20193;-80
2023/04/27 06:26:44;;;;;;;9.03;4.27;;;;;;;-141.97;48.00;47670.91;5045425;28;20185;-82
2023/04/27 06:29:10;;;;;;;8.67;3.80;;;;;;;-141.97;48.10;47559.44;5043390;28;20166;-83
2023/04/27 06:31:35;;;;;;;7.00;4.40;;;;;;;-141.97;48.22;47586.34;5049815;28;20172;-81
2023/04/27 06:34:01;;;;;;;13.63;4.67;;;;;;;-141.97;47.75;47538.28;5048836;28;20217;-81
2023/04/27 06:36:27;;;;;;;9.67;4.47;;;;;;;-141.97;47.83;47670.91;5035226;28;20237;-81
2023/04/27 06:38:55;;;;;;;9.43;4.83;;;;;;;-141.97;47.41;47715.13;5033495;28;20668;-81
2023/04/27 06:41:21;;;;;;;7.67;4.50;;;;;;;-141.97;47.51;47815.09;5051688;28;20179;-81
2023/04/27 06:43:46;;;;;;;8.03;4.50;;;;;;;-141.97;47.95;47688.22;5050502;28;20669;-81
2023/04/27 06:46:12;;;;;;;7.87;4.37;;;;;;;-141.97;47.83;47626.72;5049974;28;20249;-81
2023/04/27 06:48:37;;;;;;;10.50;4.93;;;;;;;-141.97;47.66;47622.88;5050320;28;20240;-81
2023/04/27 06:51:03;;;;;;;9.70;5.00;;;;;;;-141.97;47.86;47517.16;5050599;28;20161;-83
2023/04/27 06:53:29;;;;;;;9.37;4.90;;;;;;;-141.97;47.47;47676.69;5050705;28;20248;-82
2023/04/27 06:55:55;;;;;;;10.67;5.20;;;;;;;-141.97;47.12;47644.00;5048049;28;20214;-83
2023/04/27 06:58:21;;;;;;;13.23;6.70;;;;;;;-141.97;47.22;47492.16;5031257;28;20177;-82
2023/04/27 07:00:46;;;;;;;11.67;7.30;;;;;;;-141.97;47.12;47592.13;5050464;28;20617;-82
2023/04/27 07:03:12;;;;;;;11.50;5.83;;;;;;;-141.97;46.99;47782.41;5039130;28;20197;-80
2023/04/27 07:05:37;;;;;;;10.03;4.60;;;;;;;-141.97;47.11;47674.78;5057160;28;20192;-81
2023/04/27 07:08:02;;;;;;;8.33;4.47;;;;;;;-141.97;47.09;47703.59;5043819;28;20176;-82
2023/04/27 07:10:28;;;;;;;8.30;3.63;;;;;;;-141.97;46.78;47647.84;5030544;28;20158;-81
2023/04/27 07:12:53;;;;;;;9.47;5.20;;;;;;;-141.97;46.83;47699.75;5029794;28;20201;-81
2023/04/27 07:15:20;;;;;;;8.67;4.10;;;;;;;-141.97;47.17;47807.41;5029949;28;20244;-81
2023/04/27 07:17:46;;;;;;;18.47;11.60;;;;;;;-141.97;47.24;47630.56;5025594;28;20189;-81
2023/04/27 07:20:13;;;;;;;15.67;7.23;;;;;;;-141.97;47.00;47726.66;5048575;28;20165;-80
2023/04/27 07:22:38;;;;;;;11.73;6.70;;;;;;;-141.97;46.42;47713.22;5049433;28;20169;-80
2023/04/27 07:25:05;;;;;;;14.70;8.20;;;;;;;-141.97;45.58;47695.91;5049944;28;20207;-80
2023/04/27 07:27:30;;;;;;;27.17;14.60;;;;;;;-141.97;45.00;47742.03;5037526;28;20170;-81
2023/04/27 07:29:56;;;;;;;21.90;12.07;;;;;;;-141.97;44.80;47672.84;5029155;28;20681;-81
2023/04/27 07:32:22;;;;;;;24.83;12.73;;;;;;;-141.97;44.79;47672.84;5012535;28;20178;-82
2023/04/27 07:34:47;;;;;;;14.77;10.00;;;;;;;-141.97;43.39;47709.38;5029667;28;20176;-80
2023/04/27 07:37:14;;;;;;;19.70;11.70;;;;;;;-141.97;43.60;47676.69;5037048;28;20232;-80
2023/04/27 07:39:41;;;;;;;15.83;9.30;;;;;;;-141.97;43.59;47661.31;5040314;28;20620;-81
2023/04/27 07:42:06;;;;;;;11.50;4.80;;;;;;;-141.97;43.53;47838.16;5050120;28;20176;-79
2023/04/27 07:44:32;;;;;;;12.83;4.83;;;;;;;-141.97;43.37;47580.59;5031660;28;20292;-81
2023/04/27 07:46:57;;;;;;;8.43;3.27;;;;;;;-141.97;42.74;47688.22;5052876;28;20169;-81
2023/04/27 07:49:24;;;;;;;6.90;4.40;;;;;;;-141.97;42.89;47707.44;5036333;28;20648;-82
2023/04/27 07:51:51;;;;;;;11.93;6.10;;;;;;;-141.97;42.88;47669.00;5035830;28;20177;-80
2023/04/27 07:54:16;;;;;;;9.53;5.10;;;;;;;-141.97;43.37;47665.16;5035932;28;20407;-82
2023/04/27 07:56:42;;;;;;;15.10;7.60;;;;;;;-141.97;43.63;47726.66;5053308;28;20212;-80
2023/04/27 07:59:08;;;;;;;10.50;5.60;;;;;;;-141.97;42.54;47659.38;5053005;28;20165;-81
2023/04/27 08:01:34;;;;;;;13.13;6.77;;;;;;;-141.97;41.82;47724.75;5035842;28;20268;-82
2023/04/27 08:03:59;;;;;;;10.70;5.63;;;;;;;-141.97;41.42;47820.84;5026031;28;20205;-80
2023/04/27 08:06:27;;;;;;;7.03;4.70;;;;;;;-141.97;41.15;47692.06;5014692;28;20221;-82
2023/04/27 08:08:57;;;;;;;12.20;7.67;;;;;;;-141.97;40.21;47561.38;5015291;28;20209;-81
2023/04/27 08:11:22;;;;;;;18.00;10.27;;;;;;;-141.97;41.04;47849.69;5031705;28;20187;-81
2023/04/27 08:13:48;;;;;;;14.70;7.07;;;;;;;-141.97;40.03;47538.28;5033003;28;20618;-82
2023/04/27 08:16:13;;;;;;;14.03;5.60;;;;;;;-141.97;39.26;47699.75;5015399;28;20174;-81
2023/04/27 08:18:39;;;;;;;17.10;10.97;;;;;;;-141.97;39.57;47680.53;5033901;28;20185;-81
2023/04/27 08:21:04;;;;;;;8.20;5.10;;;;;;;-141.97;40.31;47832.38;5034820;28;20173;-81
2023/04/27 08:23:31;;;;;;;12.70;6.83;;;;;;;-141.97;40.57;47565.22;5052883;28;20193;-80
2023/04/27 08:25:57;;;;;;;10.50;4.80;;;;;;;-141.97;39.27;47684.38;5034620;28;20574;-81
2023/04/27 08:28:23;;;;;;;7.17;4.40;;;;;;;-141.97;38.44;47542.16;5034712;28;20196;-84
2023/04/27 08:30:48;;;;;;;10.40;5.50;;;;;;;-141.97;38.73;47532.53;5055610;28;20185;-82
2023/04/27 08:33:14;;;;;;;9.03;5.20;;;;;;;-141.97;38.77;47567.13;5063471;28;20221;-81
2023/04/27 08:35:40;;;;;;;7.80;4.50;;;;;;;-141.97;39.03;47576.75;5052766;28;20161;-82
2023/04/27 08:38:06;;;;;;;9.53;5.60;;;;;;;-141.97;38.93;47549.84;5038307;28;20375;-82
2023/04/27 08:40:31;;;;;;;6.97;4.93;;;;;;;-141.97;38.26;47670.91;5032541;28;20666;-81
2023/04/27 08:42:59;;;;;;;10.60;6.83;;;;;;;-141.97;38.28;47536.38;5032411;28;20174;-81
2023/04/27 08:45:26;;;;;;;15.70;8.60;;;;;;;-141.97;37.61;47607.50;5015107;28;20186;-81
2023/04/27 08:47:52;;;;;;;16.63;8.80;;;;;;;-141.97;37.34;47532.53;5032925;28;20236;-80
2023/04/27 08:50:19;;;;;;;16.90;10.27;;;;;;;-141.97;37.84;47684.38;5014708;28;20560;-81
2023/04/27 08:52:45;;;;;;;11.53;5.50;;;;;;;-141.97;38.71;47803.56;5023037;28;20744;-81
2023/04/27 08:55:11;;;;;;;9.20;5.17;;;;;;;-141.97;38.69;47665.16;5032650;28;20253;-81
2023/04/27 08:57:37;;;;;;;12.77;7.40;;;;;;;-141.97;38.26;47728.59;5023450;28;20634;-81
2023/04/27 09:00:11;;;;;;;9.87;5.50;;;;;;;-141.97;37.84;47540.22;5034362;28;20199;-80
2023/04/27 09:02:36;;;;;;;10.17;5.60;;;;;;;-141.97;39.05;47776.63;5050625;28;20215;-82
2023/04/27 09:05:03;;;;;;;12.33;7.73;;;;;;;-141.97;37.97;47567.13;5028098;28;20244;-81
2023/04/27 09:07:28;;;;;;;10.47;6.67;;;;;;;-141.97;37.25;47622.88;5039326;28;20176;-81
2023/04/27 09:10:04;;;;;;;7.57;4.90;;;;;;;-141.97;37.62;47453.72;5053312;28;20244;-81
2023/04/27 09:12:29;;;;;;;9.87;5.13;;;;;;;-141.97;36.38;47669.00;5053031;28;20169;-81
2023/04/27 09:15:02;;;;;;;8.40;5.83;;;;;;;-141.97;36.21;47569.06;5052860;28;20154;-81
2023/04/27 09:17:29;;;;;;;10.17;5.70;;;;;;;-141.97;35.89;47653.63;5051658;28;20196;-82
2023/04/27 09:20:12;;;;;;;7.50;4.63;;;;;;;-141.97;36.84;47653.63;5051259;28;20213;-81
2023/04/27 09:22:57;;;;;;;7.38;4.60;;;;;;;-141.97;37.22;47670.91;5052023;28;20505;-81
2023/04/27 09:25:30;;;;;;;4.93;3.97;;;;;;;-141.97;37.59;47647.84;5034356;28;20189;-82
2023/04/27 09:27:58;;;;;;;8.90;5.40;;;;;;;-141.97;37.14;47667.06;5040043;28;20639;-81
2023/04/27 09:30:27;;;;;;;11.20;6.17;;;;;;;-141.97;36.22;47803.56;5013958;28;20184;-81
2023/04/27 09:33:02;;;;;;;6.57;4.00;;;;;;;-141.97;36.07;47630.56;5014512;28;20174;-81
2023/04/27 09:35:33;;;;;;;7.70;4.60;;;;;;;-141.97;36.96;47624.78;5032051;28;20157;-82
2023/04/27 09:37:59;;;;;;;8.67;5.03;;;;;;;-141.97;36.99;47651.69;5030763;28;20221;-81
2023/04/27 09:40:28;;;;;;;11.80;5.20;;;;;;;-141.97;36.93;47657.47;5032494;28;20193;-81
2023/04/27 09:43:00;;;;;;;9.53;5.00;;;;;;;-141.97;37.21;47599.81;5031246;28;20185;-81
2023/04/27 09:45:26;;;;;;;10.13;5.37;;;;;;;-141.97;37.30;47661.31;5013517;28;20173;-81
2023/04/27 09:47:52;;;;;;;10.03;5.57;;;;;;;-141.97;38.12;47588.28;5031310;28;20173;-81
2023/04/27 09:50:18;;;;;;;17.33;7.00;;;;;;;-141.97;37.48;47642.09;5013619;28;20189;-82
2023/04/27 09:52:45;;;;;;;8.70;5.87;;;;;;;-141.97;37.07;47644.00;5031187;28;20170;-81
2023/04/27 09:55:39;;;;;;;10.67;4.90;;;;;;;-141.97;37.42;47601.72;5031697;28;20594;-81
2023/04/27 09:58:42;;;;;;;8.07;4.60;;;;;;;-141.97;36.12;47676.69;4981325;28;20652;-82
2023/04/27 10:01:36;;;;;;;10.53;4.90;;;;;;;-141.97;36.15;47661.31;4990231;28;20167;-81
2023/04/27 10:04:16;;;;;;;8.03;5.10;;;;;;;-141.97;35.82;47651.69;4953097;29;20529;-81
2023/04/27 10:06:42;;;;;;;6.77;4.30;;;;;;;-141.97;35.30;47599.81;4970690;29;20193;-81
2023/04/27 10:09:09;;;;;;;11.00;6.30;;;;;;;-141.97;35.64;47613.25;4939353;29;20291;-81
2023/04/27 10:11:46;;;;;;;15.20;5.40;;;;;;;-141.97;35.27;47624.78;4936426;29;20187;-81
2023/04/27 10:14:17;;;;;;;7.37;4.43;;;;;;;-141.97;35.01;47667.06;4950636;29;20160;-81
2023/04/27 10:16:46;;;;;;;10.10;7.03;;;;;;;-141.97;35.72;47644.00;4950899;29;20208;-81
2023/04/27 10:19:13;;;;;;;7.60;4.40;;;;;;;-141.97;34.88;47661.31;4950341;29;20195;-80
2023/04/27 10:21:59;;;;;;;5.10;3.80;;;;;;;-141.97;35.73;47576.75;4934815;29;20184;-81
2023/04/27 10:24:34;;;;;;;10.30;4.57;;;;;;;-141.97;38.68;47659.38;4951643;29;20283;-81
2023/04/27 10:27:07;;;;;;;10.90;4.53;;;;;;;-141.97;38.35;47499.84;4950037;28;20164;-81
2023/04/27 10:29:37;;;;;;;6.30;4.87;;;;;;;-141.97;38.66;47653.63;4950403;29;20189;-80
2023/04/27 10:32:20;;;;;;;8.70;5.43;;;;;;;-141.97;39.53;47722.81;4950679;29;20153;-79
2023/04/27 10:34:47;;;;;;;11.67;7.20;;;;;;;-141.97;39.11;47734.34;4966156;28;20194;-80
2023/04/27 10:37:18;;;;;;;8.87;5.47;;;;;;;-141.97;38.55;47626.72;4972698;28;20314;-80
2023/04/27 10:39:45;;;;;;;8.43;5.20;;;;;;;-141.97;36.90;47534.44;4989019;28;20185;-83
2023/04/27 10:42:24;;;;;;;9.30;5.30;;;;;;;-141.97;37.42;47661.31;5030833;28;20193;-80
2023/04/27 10:44:59;;;;;;;9.43;5.40;;;;;;;-141.97;36.22;47684.38;5012905;28;20193;-81
2023/04/27 10:47:41;;;;;;;13.90;8.63;;;;;;;-141.97;36.60;47444.13;5012935;28;20170;-81
2023/04/27 10:50:14;;;;;;;11.97;6.87;;;;;;;-141.97;35.86;47530.59;5029897;28;20170;-81
2023/04/27 10:52:45;;;;;;;32.57;20.63;;;;;;;-141.97;35.79;47401.84;5031791;28;20157;-78
2023/04/27 10:55:22;;;;;;;15.13;7.00;;;;;;;-141.97;35.39;47684.38;5031019;28;20158;-79
2023/04/27 10:57:52;;;;;;;9.30;6.33;;;;;;;-141.97;35.62;47734.34;5031000;28;20154;-80
2023/04/27 11:00:45;;;;;;;16.23;9.10;;;;;;;-141.97;35.63;47595.97;5031060;28;20685;-81
2023/04/27 11:03:18;;;;;;;10.67;5.90;;;;;;;-141.97;35.53;47613.25;5031810;28;20918;-79
2023/04/27 11:05:45;;;;;;;53.47;24.80;;;;;;;-141.97;35.34;47657.47;5032137;28;20166;-80
2023/04/27 11:08:13;;;;;;;26.10;12.73;;;;;;;-141.97;35.62;47699.75;5013335;28;20264;-80
2023/04/27 11:10:48;;;;;;;8.93;5.23;;;;;;;-141.97;35.48;47524.84;5018151;28;20216;-81
2023/04/27 11:13:16;;;;;;;11.87;6.10;;;;;;;-141.97;35.65;47665.16;5050053;28;20582;-81